sensor_id;sensor_type;location;lat;lon;timestamp;pressure;altitude;pressure_sealevel;temperature;humidity
76216;BME280;65010;50.190;18.930;2024-03-02T00:02:53;97671.47;;;10.21;64.39
76216;BME280;65010;50.190;18.930;2024-03-02T00:05:59;97665.59;;;10.19;64.51
76216;BME280;65010;50.190;18.930;2024-03-02T00:09:05;97666.63;;;10.18;64.41
76216;BME280;65010;50.190;18.930;2024-03-02T00:12:17;97666.19;;;10.14;64.15
76216;BME280;65010;50.190;18.930;2024-03-02T00:15:41;97670.63;;;10.14;64.60
76216;BME280;65010;50.190;18.930;2024-03-02T00:18:51;97673.25;;;10.14;64.84
76216;BME280;65010;50.190;18.930;2024-03-02T00:22:00;97673.44;;;10.12;64.26
76216;BME280;65010;50.190;18.930;2024-03-02T00:25:07;97681.88;;;10.07;64.22
76216;BME280;65010;50.190;18.930;2024-03-02T00:28:19;97679.38;;;9.99;64.16
76216;BME280;65010;50.190;18.930;2024-03-02T00:31:26;97677.28;;;9.95;64.21
76216;BME280;65010;50.190;18.930;2024-03-02T00:34:33;97680.72;;;9.95;64.39
76216;BME280;65010;50.190;18.930;2024-03-02T00:37:38;97681.56;;;9.96;64.07
76216;BME280;65010;50.190;18.930;2024-03-02T00:40:46;97684.97;;;9.96;63.96
76216;BME280;65010;50.190;18.930;2024-03-02T00:43:58;97671.97;;;9.88;63.81
76216;BME280;65010;50.190;18.930;2024-03-02T00:47:07;97687.53;;;9.89;63.83
76216;BME280;65010;50.190;18.930;2024-03-02T00:50:13;97671.53;;;9.84;64.03
76216;BME280;65010;50.190;18.930;2024-03-02T00:53:32;97681.78;;;9.79;63.72
76216;BME280;65010;50.190;18.930;2024-03-02T00:56:38;97668.72;;;9.71;63.75
76216;BME280;65010;50.190;18.930;2024-03-02T00:59:49;97681.59;;;9.66;63.52
76216;BME280;65010;50.190;18.930;2024-03-02T01:02:55;97677.25;;;9.58;63.79
76216;BME280;65010;50.190;18.930;2024-03-02T01:06:01;97678.81;;;9.53;63.57
76216;BME280;65010;50.190;18.930;2024-03-02T01:09:07;97673.47;;;9.46;63.93
76216;BME280;65010;50.190;18.930;2024-03-02T01:12:15;97671.22;;;9.43;64.01
76216;BME280;65010;50.190;18.930;2024-03-02T01:15:27;97662.00;;;9.32;63.95
76216;BME280;65010;50.190;18.930;2024-03-02T01:18:33;97666.06;;;9.35;64.20
76216;BME280;65010;50.190;18.930;2024-03-02T01:21:39;97655.56;;;9.35;63.95
76216;BME280;65010;50.190;18.930;2024-03-02T01:24:45;97648.03;;;9.25;63.97
76216;BME280;65010;50.190;18.930;2024-03-02T01:27:51;97660.28;;;9.39;63.82
76216;BME280;65010;50.190;18.930;2024-03-02T01:31:00;97655.06;;;9.39;63.96
76216;BME280;65010;50.190;18.930;2024-03-02T01:34:06;97656.31;;;9.43;63.50
76216;BME280;65010;50.190;18.930;2024-03-02T01:37:12;97657.75;;;9.46;63.32
76216;BME280;65010;50.190;18.930;2024-03-02T01:40:18;97656.47;;;9.42;63.28
76216;BME280;65010;50.190;18.930;2024-03-02T01:43:26;97657.03;;;9.37;63.27
76216;BME280;65010;50.190;18.930;2024-03-02T01:46:34;97645.47;;;9.32;63.37
76216;BME280;65010;50.190;18.930;2024-03-02T01:49:41;97646.03;;;9.27;63.68
76216;BME280;65010;50.190;18.930;2024-03-02T01:52:47;97639.31;;;9.24;63.77
76216;BME280;65010;50.190;18.930;2024-03-02T01:55:53;97640.50;;;9.22;63.95
76216;BME280;65010;50.190;18.930;2024-03-02T01:58:58;97626.75;;;9.20;63.94
76216;BME280;65010;50.190;18.930;2024-03-02T02:02:07;97626.94;;;9.18;63.82
76216;BME280;65010;50.190;18.930;2024-03-02T02:05:14;97629.09;;;9.15;63.97
76216;BME280;65010;50.190;18.930;2024-03-02T02:08:20;97627.84;;;9.10;63.99
76216;BME280;65010;50.190;18.930;2024-03-02T02:11:27;97623.22;;;9.13;64.37
76216;BME280;65010;50.190;18.930;2024-03-02T02:14:34;97627.50;;;9.14;64.19
76216;BME280;65010;50.190;18.930;2024-03-02T02:17:45;97626.47;;;9.15;64.31
76216;BME280;65010;50.190;18.930;2024-03-02T02:20:51;97612.75;;;9.13;64.48
76216;BME280;65010;50.190;18.930;2024-03-02T02:24:00;97628.13;;;9.16;64.22
76216;BME280;65010;50.190;18.930;2024-03-02T02:27:06;97619.44;;;9.15;64.11
76216;BME280;65010;50.190;18.930;2024-03-02T02:30:13;97619.97;;;9.10;64.34
76216;BME280;65010;50.190;18.930;2024-03-02T02:33:23;97612.94;;;9.11;64.13
76216;BME280;65010;50.190;18.930;2024-03-02T02:36:29;97623.97;;;9.06;64.05
76216;BME280;65010;50.190;18.930;2024-03-02T02:39:38;97611.22;;;9.03;64.21
76216;BME280;65010;50.190;18.930;2024-03-02T02:42:44;97621.25;;;9.00;64.13
76216;BME280;65010;50.190;18.930;2024-03-02T02:45:50;97617.72;;;8.93;64.44
76216;BME280;65010;50.190;18.930;2024-03-02T02:48:56;97617.94;;;8.91;64.61
76216;BME280;65010;50.190;18.930;2024-03-02T02:52:02;97616.13;;;8.92;64.51
76216;BME280;65010;50.190;18.930;2024-03-02T02:55:12;97614.94;;;8.94;64.67
76216;BME280;65010;50.190;18.930;2024-03-02T02:58:18;97618.00;;;8.98;64.70
76216;BME280;65010;50.190;18.930;2024-03-02T03:01:25;97614.19;;;9.00;64.69
76216;BME280;65010;50.190;18.930;2024-03-02T03:04:31;97621.09;;;9.01;64.57
76216;BME280;65010;50.190;18.930;2024-03-02T03:07:41;97619.56;;;9.07;64.26
76216;BME280;65010;50.190;18.930;2024-03-02T03:10:50;97622.97;;;9.07;64.31
76216;BME280;65010;50.190;18.930;2024-03-02T03:13:56;97625.44;;;9.09;64.36
76216;BME280;65010;50.190;18.930;2024-03-02T03:17:03;97625.84;;;9.13;64.22
76216;BME280;65010;50.190;18.930;2024-03-02T03:20:11;97629.31;;;9.13;64.36
76216;BME280;65010;50.190;18.930;2024-03-02T03:23:18;97620.59;;;9.13;64.28
76216;BME280;65010;50.190;18.930;2024-03-02T03:26:27;97625.03;;;9.12;64.15
76216;BME280;65010;50.190;18.930;2024-03-02T03:29:32;97625.22;;;9.10;64.07
76216;BME280;65010;50.190;18.930;2024-03-02T03:32:38;97623.78;;;9.08;63.92
76216;BME280;65010;50.190;18.930;2024-03-02T03:35:44;97634.91;;;9.10;64.13
76216;BME280;65010;50.190;18.930;2024-03-02T03:38:51;97629.09;;;9.15;64.35
76216;BME280;65010;50.190;18.930;2024-03-02T03:41:59;97631.19;;;9.19;64.12
76216;BME280;65010;50.190;18.930;2024-03-02T03:45:07;97630.66;;;9.24;64.36
76216;BME280;65010;50.190;18.930;2024-03-02T03:48:12;97630.81;;;9.22;64.01
76216;BME280;65010;50.190;18.930;2024-03-02T03:51:19;97630.00;;;9.22;64.00
76216;BME280;65010;50.190;18.930;2024-03-02T03:54:25;97625.97;;;9.19;64.02
76216;BME280;65010;50.190;18.930;2024-03-02T03:57:34;97627.75;;;9.19;64.05
76216;BME280;65010;50.190;18.930;2024-03-02T04:00:40;97622.72;;;9.17;64.02
76216;BME280;65010;50.190;18.930;2024-03-02T04:03:46;97610.97;;;9.13;64.18
76216;BME280;65010;50.190;18.930;2024-03-02T04:06:52;97603.81;;;9.07;64.05
76216;BME280;65010;50.190;18.930;2024-03-02T04:09:58;97615.66;;;9.18;64.30
76216;BME280;65010;50.190;18.930;2024-03-02T04:13:06;97614.75;;;9.25;64.18
76216;BME280;65010;50.190;18.930;2024-03-02T04:16:13;97611.72;;;9.28;64.14
76216;BME280;65010;50.190;18.930;2024-03-02T04:19:18;97615.81;;;9.31;63.79
76216;BME280;65010;50.190;18.930;2024-03-02T04:22:24;97615.19;;;9.29;63.72
76216;BME280;65010;50.190;18.930;2024-03-02T04:25:30;97621.97;;;9.23;63.48
76216;BME280;65010;50.190;18.930;2024-03-02T04:28:39;97622.31;;;9.20;63.52
76216;BME280;65010;50.190;18.930;2024-03-02T04:31:45;97625.13;;;9.19;63.73
76216;BME280;65010;50.190;18.930;2024-03-02T04:34:51;97625.31;;;9.17;63.66
76216;BME280;65010;50.190;18.930;2024-03-02T04:37:56;97620.59;;;9.13;63.72
76216;BME280;65010;50.190;18.930;2024-03-02T04:41:04;97621.78;;;9.10;63.67
76216;BME280;65010;50.190;18.930;2024-03-02T04:44:13;97630.03;;;9.07;63.84
76216;BME280;65010;50.190;18.930;2024-03-02T04:47:19;97623.16;;;9.06;63.62
76216;BME280;65010;50.190;18.930;2024-03-02T04:50:25;97614.94;;;9.09;63.81
76216;BME280;65010;50.190;18.930;2024-03-02T04:53:31;97612.31;;;9.09;63.71
76216;BME280;65010;50.190;18.930;2024-03-02T04:56:37;97614.22;;;9.15;63.90
76216;BME280;65010;50.190;18.930;2024-03-02T04:59:50;97621.53;;;9.20;63.70
76216;BME280;65010;50.190;18.930;2024-03-02T05:02:56;97624.16;;;9.20;63.34
76216;BME280;65010;50.190;18.930;2024-03-02T05:06:03;97623.50;;;9.18;63.38
76216;BME280;65010;50.190;18.930;2024-03-02T05:09:09;97633.00;;;9.19;63.21
76216;BME280;65010;50.190;18.930;2024-03-02T05:12:15;97633.81;;;9.19;63.03
76216;BME280;65010;50.190;18.930;2024-03-02T05:15:36;97648.09;;;9.17;63.23
76216;BME280;65010;50.190;18.930;2024-03-02T05:18:43;97644.47;;;9.18;63.18
76216;BME280;65010;50.190;18.930;2024-03-02T05:21:49;97644.31;;;9.19;63.14
76216;BME280;65010;50.190;18.930;2024-03-02T05:24:56;97651.16;;;9.20;62.80
76216;BME280;65010;50.190;18.930;2024-03-02T05:28:02;97658.84;;;9.22;63.07
76216;BME280;65010;50.190;18.930;2024-03-02T05:31:15;97659.66;;;9.22;63.13
76216;BME280;65010;50.190;18.930;2024-03-02T05:34:20;97659.66;;;9.22;63.06
76216;BME280;65010;50.190;18.930;2024-03-02T05:37:27;97661.03;;;9.18;63.26
76216;BME280;65010;50.190;18.930;2024-03-02T05:40:32;97659.13;;;9.12;63.05
76216;BME280;65010;50.190;18.930;2024-03-02T05:43:39;97661.91;;;9.10;63.28
76216;BME280;65010;50.190;18.930;2024-03-02T05:46:48;97662.94;;;9.09;63.12
76216;BME280;65010;50.190;18.930;2024-03-02T05:49:54;97662.94;;;9.09;63.22
76216;BME280;65010;50.190;18.930;2024-03-02T05:52:59;97667.72;;;9.06;63.18
76216;BME280;65010;50.190;18.930;2024-03-02T05:56:06;97671.34;;;9.05;63.22
76216;BME280;65010;50.190;18.930;2024-03-02T05:59:12;97665.34;;;8.96;63.16
76216;BME280;65010;50.190;18.930;2024-03-02T06:02:22;97676.84;;;8.95;63.44
76216;BME280;65010;50.190;18.930;2024-03-02T06:05:27;97679.47;;;8.95;63.66
76216;BME280;65010;50.190;18.930;2024-03-02T06:08:33;97679.81;;;8.92;63.83
76216;BME280;65010;50.190;18.930;2024-03-02T06:11:40;97683.91;;;8.95;64.01
76216;BME280;65010;50.190;18.930;2024-03-02T06:14:46;97683.69;;;8.96;63.90
76216;BME280;65010;50.190;18.930;2024-03-02T06:17:55;97688.78;;;8.98;63.83
76216;BME280;65010;50.190;18.930;2024-03-02T06:21:01;97693.66;;;9.01;63.93
76216;BME280;65010;50.190;18.930;2024-03-02T06:24:07;97693.75;;;9.07;63.87
76216;BME280;65010;50.190;18.930;2024-03-02T06:27:14;97696.84;;;9.11;63.91
76216;BME280;65010;50.190;18.930;2024-03-02T06:30:19;97697.47;;;9.13;63.92
76216;BME280;65010;50.190;18.930;2024-03-02T06:33:28;97693.03;;;9.14;64.01
76216;BME280;65010;50.190;18.930;2024-03-02T06:36:34;97694.28;;;9.18;63.85
76216;BME280;65010;50.190;18.930;2024-03-02T06:39:40;97692.31;;;9.20;63.92
76216;BME280;65010;50.190;18.930;2024-03-02T06:42:46;97689.50;;;9.21;63.68
76216;BME280;65010;50.190;18.930;2024-03-02T06:45:52;97689.13;;;9.24;63.88
76216;BME280;65010;50.190;18.930;2024-03-02T06:49:00;97691.41;;;9.27;63.57
76216;BME280;65010;50.190;18.930;2024-03-02T06:52:07;97690.41;;;9.28;63.58
76216;BME280;65010;50.190;18.930;2024-03-02T06:55:13;97688.97;;;9.26;63.47
76216;BME280;65010;50.190;18.930;2024-03-02T06:58:19;97693.66;;;9.16;63.60
76216;BME280;65010;50.190;18.930;2024-03-02T07:01:25;97690.13;;;9.08;63.76
76216;BME280;65010;50.190;18.930;2024-03-02T07:04:34;97689.94;;;8.95;63.91
76216;BME280;65010;50.190;18.930;2024-03-02T07:07:39;97688.22;;;8.87;64.19
76216;BME280;65010;50.190;18.930;2024-03-02T07:10:46;97694.56;;;8.93;64.58
76216;BME280;65010;50.190;18.930;2024-03-02T07:13:52;97691.78;;;8.95;64.53
76216;BME280;65010;50.190;18.930;2024-03-02T07:16:58;97689.94;;;8.95;64.87
76216;BME280;65010;50.190;18.930;2024-03-02T07:20:07;97699.16;;;9.06;64.77
76216;BME280;65010;50.190;18.930;2024-03-02T07:23:15;97706.13;;;9.14;64.78
76216;BME280;65010;50.190;18.930;2024-03-02T07:26:22;97700.72;;;9.15;64.38
76216;BME280;65010;50.190;18.930;2024-03-02T07:29:31;97708.59;;;9.15;64.21
76216;BME280;65010;50.190;18.930;2024-03-02T07:32:37;97714.63;;;9.16;64.44
76216;BME280;65010;50.190;18.930;2024-03-02T07:35:47;97713.47;;;9.18;64.29
76216;BME280;65010;50.190;18.930;2024-03-02T07:38:52;97712.66;;;9.18;64.35
76216;BME280;65010;50.190;18.930;2024-03-02T07:41:59;97720.88;;;9.15;64.68
76216;BME280;65010;50.190;18.930;2024-03-02T07:45:06;97722.13;;;9.19;64.71
76216;BME280;65010;50.190;18.930;2024-03-02T07:48:13;97717.34;;;9.22;64.75
76216;BME280;65010;50.190;18.930;2024-03-02T07:51:22;97720.00;;;9.37;64.49
76216;BME280;65010;50.190;18.930;2024-03-02T07:54:28;97718.41;;;9.43;64.22
76216;BME280;65010;50.190;18.930;2024-03-02T07:57:33;97723.78;;;9.49;64.43
76216;BME280;65010;50.190;18.930;2024-03-02T08:00:40;97725.28;;;9.59;64.00
76216;BME280;65010;50.190;18.930;2024-03-02T08:03:46;97727.56;;;9.62;63.47
76216;BME280;65010;50.190;18.930;2024-03-02T08:06:56;97731.44;;;9.66;63.65
76216;BME280;65010;50.190;18.930;2024-03-02T08:10:03;97737.41;;;9.75;63.72
76216;BME280;65010;50.190;18.930;2024-03-02T08:13:10;97723.56;;;9.81;63.41
76216;BME280;65010;50.190;18.930;2024-03-02T08:16:16;97730.34;;;9.90;63.71
76216;BME280;65010;50.190;18.930;2024-03-02T08:19:24;97725.63;;;10.00;63.60
76216;BME280;65010;50.190;18.930;2024-03-02T08:22:32;97721.50;;;10.13;63.46
76216;BME280;65010;50.190;18.930;2024-03-02T08:25:38;97719.38;;;10.23;63.00
76216;BME280;65010;50.190;18.930;2024-03-02T08:28:44;97725.41;;;10.38;62.70
76216;BME280;65010;50.190;18.930;2024-03-02T08:31:51;97728.44;;;10.63;63.17
76216;BME280;65010;50.190;18.930;2024-03-02T08:34:56;97722.84;;;10.95;62.92
76216;BME280;65010;50.190;18.930;2024-03-02T08:38:05;97717.59;;;11.23;61.84
76216;BME280;65010;50.190;18.930;2024-03-02T08:41:11;97721.13;;;11.43;61.23
76216;BME280;65010;50.190;18.930;2024-03-02T08:44:19;97725.69;;;11.63;60.58
76216;BME280;65010;50.190;18.930;2024-03-02T08:47:25;97724.56;;;11.79;60.38
76216;BME280;65010;50.190;18.930;2024-03-02T08:50:31;97726.41;;;11.98;59.82
76216;BME280;65010;50.190;18.930;2024-03-02T08:53:39;97730.50;;;12.07;59.04
76216;BME280;65010;50.190;18.930;2024-03-02T08:56:47;97734.38;;;12.18;58.98
76216;BME280;65010;50.190;18.930;2024-03-02T08:59:52;97744.34;;;12.29;58.73
76216;BME280;65010;50.190;18.930;2024-03-02T09:02:59;97745.19;;;12.37;58.75
76216;BME280;65010;50.190;18.930;2024-03-02T09:06:05;97720.03;;;12.27;58.63
76216;BME280;65010;50.190;18.930;2024-03-02T09:09:14;97740.72;;;12.44;58.75
76216;BME280;65010;50.190;18.930;2024-03-02T09:12:23;97730.63;;;12.47;58.56
76216;BME280;65010;50.190;18.930;2024-03-02T09:15:30;97746.06;;;12.57;58.02
76216;BME280;65010;50.190;18.930;2024-03-02T09:18:40;97745.84;;;12.65;57.96
76216;BME280;65010;50.190;18.930;2024-03-02T09:21:47;97744.03;;;12.79;57.79
76216;BME280;65010;50.190;18.930;2024-03-02T09:24:55;97744.22;;;12.84;56.93
76216;BME280;65010;50.190;18.930;2024-03-02T09:28:02;97745.44;;;12.88;56.61
76216;BME280;65010;50.190;18.930;2024-03-02T09:31:08;97738.56;;;12.94;57.27
76216;BME280;65010;50.190;18.930;2024-03-02T09:34:15;97747.88;;;13.03;56.81
76216;BME280;65010;50.190;18.930;2024-03-02T09:37:21;97759.03;;;13.12;56.52
76216;BME280;65010;50.190;18.930;2024-03-02T09:40:30;97754.56;;;13.26;57.17
76216;BME280;65010;50.190;18.930;2024-03-02T09:43:36;97751.47;;;13.42;56.76
76216;BME280;65010;50.190;18.930;2024-03-02T09:46:42;97753.88;;;13.51;55.88
76216;BME280;65010;50.190;18.930;2024-03-02T09:49:49;97758.16;;;13.52;55.60
76216;BME280;65010;50.190;18.930;2024-03-02T09:52:56;97762.22;;;13.54;55.76
76216;BME280;65010;50.190;18.930;2024-03-02T09:56:04;97764.03;;;13.60;55.65
76216;BME280;65010;50.190;18.930;2024-03-02T09:59:11;97766.66;;;13.67;55.67
76216;BME280;65010;50.190;18.930;2024-03-02T10:02:20;97762.81;;;13.63;55.11
76216;BME280;65010;50.190;18.930;2024-03-02T10:05:27;97767.91;;;13.64;55.27
76216;BME280;65010;50.190;18.930;2024-03-02T10:08:42;97756.75;;;13.62;55.27
76216;BME280;65010;50.190;18.930;2024-03-02T10:11:53;97759.59;;;13.67;55.45
76216;BME280;65010;50.190;18.930;2024-03-02T10:15:03;97751.81;;;13.73;55.45
76216;BME280;65010;50.190;18.930;2024-03-02T10:18:13;97757.31;;;13.71;55.13
76216;BME280;65010;50.190;18.930;2024-03-02T10:21:18;97751.84;;;13.66;54.89
76216;BME280;65010;50.190;18.930;2024-03-02T10:24:27;97755.91;;;13.62;54.34
76216;BME280;65010;50.190;18.930;2024-03-02T10:27:42;97757.53;;;13.56;54.72
76216;BME280;65010;50.190;18.930;2024-03-02T10:30:48;97760.38;;;13.55;54.83
76216;BME280;65010;50.190;18.930;2024-03-02T10:33:56;97759.75;;;13.59;55.29
76216;BME280;65010;50.190;18.930;2024-03-02T10:37:06;97767.31;;;13.62;54.94
76216;BME280;65010;50.190;18.930;2024-03-02T10:40:13;97771.34;;;13.72;55.39
76216;BME280;65010;50.190;18.930;2024-03-02T10:43:23;97772.75;;;13.74;55.30
76216;BME280;65010;50.190;18.930;2024-03-02T10:46:30;97773.72;;;13.86;55.49
76216;BME280;65010;50.190;18.930;2024-03-02T10:49:42;97768.84;;;13.83;54.11
76216;BME280;65010;50.190;18.930;2024-03-02T10:52:48;97772.53;;;13.82;54.18
76216;BME280;65010;50.190;18.930;2024-03-02T10:55:58;97777.22;;;13.74;53.58
76216;BME280;65010;50.190;18.930;2024-03-02T10:59:17;97778.66;;;13.56;52.79
76216;BME280;65010;50.190;18.930;2024-03-02T11:02:35;97780.09;;;13.39;53.11
76216;BME280;65010;50.190;18.930;2024-03-02T11:05:46;97776.69;;;13.32;53.95
76216;BME280;65010;50.190;18.930;2024-03-02T11:08:55;97782.97;;;13.31;53.69
76216;BME280;65010;50.190;18.930;2024-03-02T11:12:12;97781.16;;;13.18;53.95
76216;BME280;65010;50.190;18.930;2024-03-02T11:15:25;97776.91;;;13.10;54.29
76216;BME280;65010;50.190;18.930;2024-03-02T11:18:33;97773.25;;;12.98;54.70
76216;BME280;65010;50.190;18.930;2024-03-02T11:21:41;97767.75;;;12.93;54.80
76216;BME280;65010;50.190;18.930;2024-03-02T11:24:51;97763.50;;;12.98;54.86
76216;BME280;65010;50.190;18.930;2024-03-02T11:28:02;97761.06;;;13.10;55.28
76216;BME280;65010;50.190;18.930;2024-03-02T11:31:14;97762.66;;;13.24;54.85
76216;BME280;65010;50.190;18.930;2024-03-02T11:34:29;97756.38;;;13.25;54.65
76216;BME280;65010;50.190;18.930;2024-03-02T11:37:35;97759.63;;;13.34;54.90
76216;BME280;65010;50.190;18.930;2024-03-02T11:40:42;97758.75;;;13.47;54.57
76216;BME280;65010;50.190;18.930;2024-03-02T11:43:48;97742.94;;;13.47;54.41
76216;BME280;65010;50.190;18.930;2024-03-02T11:47:01;97742.31;;;13.58;54.79
76216;BME280;65010;50.190;18.930;2024-03-02T11:50:10;97744.75;;;13.66;54.41
76216;BME280;65010;50.190;18.930;2024-03-02T11:53:17;97740.25;;;13.74;54.52
76216;BME280;65010;50.190;18.930;2024-03-02T11:56:25;97736.78;;;13.80;54.51
76216;BME280;65010;50.190;18.930;2024-03-02T11:59:33;97743.47;;;13.82;54.23
76216;BME280;65010;50.190;18.930;2024-03-02T12:02:41;97737.16;;;13.83;54.04
76216;BME280;65010;50.190;18.930;2024-03-02T12:05:51;97741.22;;;13.79;54.47
76216;BME280;65010;50.190;18.930;2024-03-02T12:08:58;97735.75;;;13.81;54.85
76216;BME280;65010;50.190;18.930;2024-03-02T12:12:06;97737.75;;;13.85;54.75
76216;BME280;65010;50.190;18.930;2024-03-02T12:15:13;97734.50;;;13.90;54.94
76216;BME280;65010;50.190;18.930;2024-03-02T12:18:22;97739.94;;;13.95;55.06
76216;BME280;65010;50.190;18.930;2024-03-02T12:21:28;97741.97;;;14.00;55.33
76216;BME280;65010;50.190;18.930;2024-03-02T12:24:35;97740.91;;;14.07;55.56
76216;BME280;65010;50.190;18.930;2024-03-02T12:27:41;97743.28;;;14.16;55.67
76216;BME280;65010;50.190;18.930;2024-03-02T12:30:49;97745.53;;;14.19;55.23
76216;BME280;65010;50.190;18.930;2024-03-02T12:33:58;97741.28;;;14.11;55.43
76216;BME280;65010;50.190;18.930;2024-03-02T12:37:05;97743.28;;;14.16;55.94
76216;BME280;65010;50.190;18.930;2024-03-02T12:40:11;97733.56;;;14.16;55.67
76216;BME280;65010;50.190;18.930;2024-03-02T12:43:18;97739.50;;;14.05;55.86
76216;BME280;65010;50.190;18.930;2024-03-02T12:46:26;97741.59;;;13.96;55.85
76216;BME280;65010;50.190;18.930;2024-03-02T12:49:35;97737.53;;;13.94;56.34
76216;BME280;65010;50.190;18.930;2024-03-02T12:52:41;97735.91;;;13.93;56.88
76216;BME280;65010;50.190;18.930;2024-03-02T12:55:48;97745.91;;;13.77;56.28
76216;BME280;65010;50.190;18.930;2024-03-02T12:58:54;97738.84;;;13.58;56.85
76216;BME280;65010;50.190;18.930;2024-03-02T13:02:01;97742.31;;;13.52;57.54
76216;BME280;65010;50.190;18.930;2024-03-02T13:05:09;97743.09;;;13.59;57.95
76216;BME280;65010;50.190;18.930;2024-03-02T13:08:16;97737.66;;;13.47;57.91
76216;BME280;65010;50.190;18.930;2024-03-02T13:11:22;97737.69;;;13.40;58.34
76216;BME280;65010;50.190;18.930;2024-03-02T13:14:32;97727.50;;;13.37;58.64
76216;BME280;65010;50.190;18.930;2024-03-02T13:17:38;97723.91;;;13.32;58.96
76216;BME280;65010;50.190;18.930;2024-03-02T13:20:48;97725.13;;;13.22;59.36
76216;BME280;65010;50.190;18.930;2024-03-02T13:23:53;97731.22;;;13.16;59.48
76216;BME280;65010;50.190;18.930;2024-03-02T13:27:00;97722.72;;;13.07;59.73
76216;BME280;65010;50.190;18.930;2024-03-02T13:30:07;97720.69;;;12.96;60.06
76216;BME280;65010;50.190;18.930;2024-03-02T13:33:14;97721.13;;;12.80;61.06
76216;BME280;65010;50.190;18.930;2024-03-02T13:36:27;97731.44;;;12.75;61.01
76216;BME280;65010;50.190;18.930;2024-03-02T13:39:33;97717.28;;;12.69;61.55
76216;BME280;65010;50.190;18.930;2024-03-02T13:42:42;97722.75;;;12.61;61.71
76216;BME280;65010;50.190;18.930;2024-03-02T13:45:49;97725.56;;;12.73;62.17
76216;BME280;65010;50.190;18.930;2024-03-02T13:48:56;97723.75;;;12.80;62.04
76216;BME280;65010;50.190;18.930;2024-03-02T13:52:07;97721.13;;;12.93;62.15
76216;BME280;65010;50.190;18.930;2024-03-02T13:55:16;97726.97;;;13.08;62.33
76216;BME280;65010;50.190;18.930;2024-03-02T13:58:23;97726.97;;;13.22;62.27
76216;BME280;65010;50.190;18.930;2024-03-02T14:01:29;97718.03;;;13.30;62.37
76216;BME280;65010;50.190;18.930;2024-03-02T14:04:36;97712.31;;;13.39;62.43
76216;BME280;65010;50.190;18.930;2024-03-02T14:07:45;97717.97;;;13.50;62.36
76216;BME280;65010;50.190;18.930;2024-03-02T14:10:51;97715.09;;;13.58;62.42
76216;BME280;65010;50.190;18.930;2024-03-02T14:13:58;97713.06;;;13.60;62.04
76216;BME280;65010;50.190;18.930;2024-03-02T14:17:05;97715.28;;;13.56;61.77
76216;BME280;65010;50.190;18.930;2024-03-02T14:20:14;97715.50;;;13.55;61.55
76216;BME280;65010;50.190;18.930;2024-03-02T14:23:28;97710.63;;;13.58;61.83
76216;BME280;65010;50.190;18.930;2024-03-02T14:26:33;97708.81;;;13.65;62.05
76216;BME280;65010;50.190;18.930;2024-03-02T14:29:42;97698.22;;;13.72;61.39
76216;BME280;65010;50.190;18.930;2024-03-02T14:32:47;97702.88;;;13.70;60.98
76216;BME280;65010;50.190;18.930;2024-03-02T14:35:54;97705.94;;;13.74;60.72
76216;BME280;65010;50.190;18.930;2024-03-02T14:39:02;97708.16;;;13.70;60.05
76216;BME280;65010;50.190;18.930;2024-03-02T14:42:13;97700.25;;;13.63;60.32
76216;BME280;65010;50.190;18.930;2024-03-02T14:45:18;97704.72;;;13.63;60.24
76216;BME280;65010;50.190;18.930;2024-03-02T14:48:25;97703.72;;;13.64;60.21
76216;BME280;65010;50.190;18.930;2024-03-02T14:51:31;97695.59;;;13.65;60.25
76216;BME280;65010;50.190;18.930;2024-03-02T14:54:40;97700.84;;;13.72;60.31
76216;BME280;65010;50.190;18.930;2024-03-02T14:57:49;97690.81;;;13.87;60.47
76216;BME280;65010;50.190;18.930;2024-03-02T15:00:56;97695.03;;;13.95;59.77
76216;BME280;65010;50.190;18.930;2024-03-02T15:04:01;97688.31;;;13.99;59.52
76216;BME280;65010;50.190;18.930;2024-03-02T15:07:08;97693.34;;;14.07;59.44
76216;BME280;65010;50.190;18.930;2024-03-02T15:10:16;97686.59;;;14.12;58.76
76216;BME280;65010;50.190;18.930;2024-03-02T15:13:23;97685.13;;;14.22;58.49
76216;BME280;65010;50.190;18.930;2024-03-02T15:16:29;97692.81;;;14.31;59.08
76216;BME280;65010;50.190;18.930;2024-03-02T15:19:36;97688.50;;;14.36;58.99
76216;BME280;65010;50.190;18.930;2024-03-02T15:22:41;97696.59;;;14.41;59.09
76216;BME280;65010;50.190;18.930;2024-03-02T15:25:51;97697.56;;;14.47;58.88
76216;BME280;65010;50.190;18.930;2024-03-02T15:28:56;97704.03;;;14.51;58.42
76216;BME280;65010;50.190;18.930;2024-03-02T15:32:03;97710.19;;;14.45;58.39
76216;BME280;65010;50.190;18.930;2024-03-02T15:35:10;97709.81;;;14.41;58.64
76216;BME280;65010;50.190;18.930;2024-03-02T15:38:16;97709.41;;;14.38;58.86
76216;BME280;65010;50.190;18.930;2024-03-02T15:41:36;97711.69;;;14.34;58.83
76216;BME280;65010;50.190;18.930;2024-03-02T15:44:43;97707.41;;;14.33;58.96
76216;BME280;65010;50.190;18.930;2024-03-02T15:47:49;97720.22;;;14.36;59.03
76216;BME280;65010;50.190;18.930;2024-03-02T15:50:55;97718.00;;;14.33;58.92
76216;BME280;65010;50.190;18.930;2024-03-02T15:54:06;97715.41;;;14.26;58.67
76216;BME280;65010;50.190;18.930;2024-03-02T15:57:16;97711.97;;;14.19;59.04
76216;BME280;65010;50.190;18.930;2024-03-02T16:00:22;97714.81;;;14.18;59.20
76216;BME280;65010;50.190;18.930;2024-03-02T16:03:28;97709.78;;;14.16;59.07
76216;BME280;65010;50.190;18.930;2024-03-02T16:06:35;97716.88;;;14.16;59.26
76216;BME280;65010;50.190;18.930;2024-03-02T16:09:41;97717.91;;;14.15;59.20
76216;BME280;65010;50.190;18.930;2024-03-02T16:12:50;97715.06;;;14.16;59.44
76216;BME280;65010;50.190;18.930;2024-03-02T16:15:56;97714.03;;;14.17;59.12
76216;BME280;65010;50.190;18.930;2024-03-02T16:19:02;97710.38;;;14.18;59.16
76216;BME280;65010;50.190;18.930;2024-03-02T16:22:22;97700.66;;;14.12;59.17
76216;BME280;65010;50.190;18.930;2024-03-02T16:25:28;97703.72;;;14.09;59.24
76216;BME280;65010;50.190;18.930;2024-03-02T16:28:37;97708.59;;;14.05;59.21